createdAt,value
2019-01-26T00:01:20.864Z,-6.12
2019-01-26T00:03:28.387Z,-6.13
2019-01-26T00:05:35.817Z,-6.08
2019-01-26T00:07:43.339Z,-6.12
2019-01-26T00:09:50.850Z,-6.11
2019-01-26T00:11:58.277Z,-6.08
2019-01-26T00:14:06.464Z,-6.08
2019-01-26T00:16:13.571Z,-6.05
2019-01-26T00:18:20.761Z,-6.09
2019-01-26T00:20:28.408Z,-6.08
2019-01-26T00:22:35.905Z,-6.09
2019-01-26T00:24:43.261Z,-6.04
2019-01-26T00:26:50.882Z,-6.09
2019-01-26T00:28:58.210Z,-6.07
2019-01-26T00:31:05.617Z,-6.10
2019-01-26T00:33:13.116Z,-6.03
2019-01-26T00:35:20.231Z,-6.02
2019-01-26T00:37:27.886Z,-5.98
2019-01-26T00:39:35.420Z,-5.97
2019-01-26T00:41:42.976Z,-6.00
2019-01-26T00:43:50.541Z,-6.04
2019-01-26T00:45:58.028Z,-6.00
2019-01-26T00:48:05.501Z,-6.03
2019-01-26T00:50:13.032Z,-5.97
2019-01-26T00:52:20.518Z,-6.03
2019-01-26T00:54:28.160Z,-6.03
2019-01-26T00:56:35.608Z,-6.01
2019-01-26T00:58:43.485Z,-6.03
2019-01-26T01:00:51.009Z,-6.05
2019-01-26T01:02:58.340Z,-6.02
2019-01-26T01:05:06.029Z,-6.05
2019-01-26T01:07:13.418Z,-5.99
2019-01-26T01:09:20.983Z,-6.02
2019-01-26T01:11:28.296Z,-5.99
2019-01-26T01:13:35.789Z,-5.95
2019-01-26T01:15:43.351Z,-5.99
2019-01-26T01:17:51.124Z,-5.96
2019-01-26T01:19:58.614Z,-6.01
2019-01-26T01:22:06.153Z,-6.03
2019-01-26T01:24:14.108Z,-6.03
2019-01-26T01:26:21.511Z,-6.00
2019-01-26T01:28:28.940Z,-5.99
2019-01-26T01:30:36.503Z,-6.07
2019-01-26T01:32:43.773Z,-6.02
2019-01-26T01:34:51.237Z,-5.98
2019-01-26T01:36:58.651Z,-6.03
2019-01-26T01:39:09.045Z,-5.99
2019-01-26T01:41:16.444Z,-5.98
2019-01-26T01:43:24.288Z,-6.01
2019-01-26T01:45:31.809Z,-5.99
2019-01-26T01:47:39.102Z,-5.97
2019-01-26T01:49:46.732Z,-5.97
2019-01-26T01:51:54.083Z,-5.98
2019-01-26T01:54:01.435Z,-5.93
2019-01-26T01:56:08.773Z,-5.93
2019-01-26T01:58:16.166Z,-5.93
2019-01-26T02:00:25.601Z,-5.99
2019-01-26T02:02:33.153Z,-5.96
2019-01-26T02:04:40.483Z,-5.94
2019-01-26T02:06:48.092Z,-5.98
2019-01-26T02:08:55.712Z,-5.98
2019-01-26T02:11:02.969Z,-5.91
2019-01-26T02:13:10.386Z,-5.93
2019-01-26T02:15:17.538Z,-5.96
2019-01-26T02:17:25.405Z,-5.94
2019-01-26T02:19:32.859Z,-5.93
2019-01-26T02:21:40.704Z,-5.97
2019-01-26T02:23:47.949Z,-5.87
2019-01-26T02:25:55.405Z,-5.86
2019-01-26T02:28:02.726Z,-5.88
2019-01-26T02:30:13.487Z,-5.90
2019-01-26T02:32:20.847Z,-5.87
2019-01-26T02:34:28.235Z,-5.85
2019-01-26T02:36:35.626Z,-5.85
2019-01-26T02:38:43.042Z,-5.83
2019-01-26T02:40:52.266Z,-5.81
2019-01-26T02:42:59.762Z,-5.84
2019-01-26T02:45:07.669Z,-5.83
2019-01-26T02:47:14.938Z,-5.81
2019-01-26T02:49:22.364Z,-5.80
2019-01-26T02:51:29.789Z,-5.80
2019-01-26T02:53:37.269Z,-5.87
2019-01-26T02:55:44.755Z,-5.84
2019-01-26T02:57:52.134Z,-5.82
2019-01-26T02:59:59.592Z,-5.80
2019-01-26T03:02:07.064Z,-5.80
2019-01-26T03:04:14.356Z,-5.80
2019-01-26T03:06:21.861Z,-5.79
2019-01-26T03:08:29.129Z,-5.85
2019-01-26T03:10:36.490Z,-5.82
2019-01-26T03:12:43.942Z,-5.81
2019-01-26T03:14:51.313Z,-5.84
2019-01-26T03:17:05.610Z,-5.85
2019-01-26T03:19:08.153Z,-5.86
2019-01-26T03:21:15.628Z,-5.81
2019-01-26T03:23:22.773Z,-5.84
2019-01-26T03:25:30.143Z,-5.84
2019-01-26T03:27:37.508Z,-5.86
2019-01-26T03:29:44.767Z,-5.75
2019-01-26T03:31:52.230Z,-5.85
2019-01-26T03:33:59.661Z,-5.89
2019-01-26T03:36:07.070Z,-5.85
2019-01-26T03:38:14.541Z,-5.80
2019-01-26T03:40:23.012Z,-5.84
2019-01-26T03:42:30.493Z,-5.84
2019-01-26T03:44:37.978Z,-5.84
2019-01-26T03:46:45.389Z,-5.85
2019-01-26T03:48:52.808Z,-5.83
2019-01-26T03:51:00.514Z,-5.80
2019-01-26T03:53:07.849Z,-5.80
2019-01-26T03:55:17.295Z,-5.86
2019-01-26T03:57:24.739Z,-5.80
2019-01-26T03:59:32.231Z,-5.79
2019-01-26T04:01:39.565Z,-5.85
2019-01-26T04:03:46.755Z,-5.81
2019-01-26T04:05:54.122Z,-5.69
2019-01-26T04:08:01.396Z,-5.77
2019-01-26T04:10:09.940Z,-5.74
2019-01-26T04:12:17.337Z,-5.73
2019-01-26T04:14:24.659Z,-5.84
2019-01-26T04:16:32.034Z,-5.81
2019-01-26T04:18:39.465Z,-5.80
2019-01-26T04:20:47.414Z,-5.82
2019-01-26T04:22:54.966Z,-5.77
2019-01-26T04:25:02.299Z,-5.77
2019-01-26T04:27:09.702Z,-5.80
2019-01-26T04:29:17.046Z,-5.80
2019-01-26T04:31:24.462Z,-5.76
2019-01-26T04:33:31.811Z,-5.83
2019-01-26T04:35:39.618Z,-5.79
2019-01-26T04:37:47.030Z,-5.75
2019-01-26T04:39:54.392Z,-5.81
2019-01-26T04:42:01.454Z,-5.71
2019-01-26T04:44:08.595Z,-5.76
2019-01-26T04:46:15.958Z,-5.79
2019-01-26T04:48:23.397Z,-5.82
2019-01-26T04:50:30.850Z,-5.79
2019-01-26T04:52:38.172Z,-5.84
2019-01-26T04:54:45.652Z,-5.83
2019-01-26T04:56:53.016Z,-5.88
2019-01-26T04:59:00.563Z,-5.85
2019-01-26T05:01:08.134Z,-5.88
2019-01-26T05:03:15.636Z,-5.87
2019-01-26T05:05:23.002Z,-5.91
2019-01-26T05:07:30.808Z,-5.90
2019-01-26T05:09:38.254Z,-5.90
2019-01-26T05:11:45.590Z,-5.85
2019-01-26T05:13:52.976Z,-5.89
2019-01-26T05:16:00.361Z,-5.83
2019-01-26T05:18:07.989Z,-5.91
2019-01-26T05:20:24.365Z,-5.86
2019-01-26T05:22:31.947Z,-5.92
2019-01-26T05:24:38.962Z,-5.94
2019-01-26T05:26:46.409Z,-5.99
2019-01-26T05:28:53.419Z,-5.96
2019-01-26T05:31:00.457Z,-5.93
2019-01-26T05:33:07.752Z,-5.93
2019-01-26T05:35:14.754Z,-6.00
2019-01-26T05:37:21.803Z,-6.03
2019-01-26T05:39:28.804Z,-6.03
2019-01-26T05:41:35.882Z,-5.97
2019-01-26T05:43:42.869Z,-6.02
2019-01-26T05:45:50.215Z,-5.98
2019-01-26T05:47:57.275Z,-5.99
2019-01-26T05:50:04.327Z,-5.94
2019-01-26T05:52:11.355Z,-5.98
2019-01-26T05:54:18.312Z,-6.02
2019-01-26T05:56:25.346Z,-5.94
2019-01-26T05:58:32.441Z,-6.00
2019-01-26T06:00:39.575Z,-6.00
2019-01-26T06:02:46.547Z,-5.99
2019-01-26T06:04:53.959Z,-6.06
2019-01-26T06:07:01.038Z,-6.00
2019-01-26T06:09:10.265Z,-6.03
2019-01-26T06:11:17.244Z,-6.04
2019-01-26T06:13:24.261Z,-6.06
2019-01-26T06:15:31.303Z,-6.02
2019-01-26T06:17:38.477Z,-5.95
2019-01-26T06:19:45.520Z,-6.04
2019-01-26T06:21:52.817Z,-5.99
2019-01-26T06:24:00.422Z,-6.05
2019-01-26T06:26:07.539Z,-6.07
2019-01-26T06:28:14.541Z,-6.04
2019-01-26T06:30:24.631Z,-6.05
2019-01-26T06:32:31.657Z,-6.01
2019-01-26T06:34:38.670Z,-6.03
2019-01-26T06:36:45.774Z,-6.06
2019-01-26T06:38:53.583Z,-6.06
2019-01-26T06:41:00.827Z,-6.08
2019-01-26T06:43:08.142Z,-6.02
2019-01-26T06:45:17.371Z,-6.03
2019-01-26T06:47:24.435Z,-6.01
2019-01-26T06:49:31.560Z,-6.05
2019-01-26T06:51:40.188Z,-5.98
2019-01-26T06:53:47.301Z,-6.03
2019-01-26T06:55:54.502Z,-6.02
2019-01-26T06:58:01.574Z,-6.04
2019-01-26T07:00:13.313Z,-6.05
2019-01-26T07:02:20.772Z,-6.06
2019-01-26T07:04:52.565Z,-5.98
2019-01-26T07:07:17.577Z,-5.95
2019-01-26T07:09:24.731Z,-6.02
2019-01-26T07:11:32.212Z,-6.03
2019-01-26T07:13:39.885Z,-5.98
2019-01-26T07:15:47.461Z,-5.99
2019-01-26T07:17:54.750Z,-5.98
2019-01-26T07:20:02.165Z,-5.95
2019-01-26T07:22:09.470Z,-5.93
2019-01-26T07:24:16.891Z,-5.94
2019-01-26T07:26:24.781Z,-5.91
2019-01-26T07:28:32.222Z,-5.92
2019-01-26T07:30:39.682Z,-5.93
2019-01-26T07:32:47.161Z,-5.92
2019-01-26T07:34:54.701Z,-5.94
2019-01-26T07:37:02.032Z,-5.91
2019-01-26T07:39:11.030Z,-5.91
2019-01-26T07:41:18.007Z,-5.91
2019-01-26T07:43:25.433Z,-5.88
2019-01-26T07:45:33.082Z,-5.86
2019-01-26T07:47:40.587Z,-5.86
2019-01-26T07:49:47.985Z,-5.86
2019-01-26T07:51:55.500Z,-5.84
2019-01-26T07:54:02.710Z,-5.84
2019-01-26T07:56:10.003Z,-5.82
2019-01-26T07:58:17.416Z,-5.78
2019-01-26T08:00:26.847Z,-5.75
2019-01-26T08:02:34.375Z,-5.74
2019-01-26T08:04:41.701Z,-5.72
2019-01-26T08:06:48.961Z,-5.72
2019-01-26T08:08:56.137Z,-5.71
2019-01-26T08:11:03.245Z,-5.68
2019-01-26T08:13:10.776Z,-5.64
2019-01-26T08:15:21.909Z,-5.64
2019-01-26T08:17:29.366Z,-5.64
2019-01-26T08:19:36.871Z,-5.62
2019-01-26T08:21:44.355Z,-5.57
2019-01-26T08:23:51.877Z,-5.60
2019-01-26T08:25:59.333Z,-5.60
2019-01-26T08:28:07.284Z,-5.58
2019-01-26T08:30:18.485Z,-5.57
2019-01-26T08:32:26.023Z,-5.61
2019-01-26T08:34:33.292Z,-5.59
2019-01-26T08:36:43.965Z,-5.56
2019-01-26T08:38:51.817Z,-5.55
2019-01-26T08:40:58.985Z,-5.54
2019-01-26T08:43:06.330Z,-5.57
2019-01-26T08:45:14.799Z,-5.53
2019-01-26T08:47:22.430Z,-5.54
2019-01-26T08:49:30.011Z,-5.47
2019-01-26T08:51:37.564Z,-5.48
2019-01-26T08:53:44.870Z,-5.50
2019-01-26T08:55:52.430Z,-5.46
2019-01-26T08:57:59.881Z,-5.46
2019-01-26T09:00:10.753Z,-5.42
2019-01-26T09:02:38.461Z,-5.45
2019-01-26T09:04:45.996Z,-5.41
2019-01-26T09:06:56.883Z,-5.40
2019-01-26T09:09:06.363Z,-5.38
2019-01-26T09:11:14.214Z,-5.33
2019-01-26T09:13:21.675Z,-5.35
2019-01-26T09:15:29.266Z,-5.32
2019-01-26T09:17:36.846Z,-5.25
2019-01-26T09:19:44.206Z,-5.29
2019-01-26T09:21:51.991Z,-5.26
2019-01-26T09:23:59.555Z,-5.20
2019-01-26T09:26:07.125Z,-5.17
2019-01-26T09:28:14.771Z,-5.14
2019-01-26T09:30:22.886Z,-5.16
2019-01-26T09:32:30.291Z,-5.12
2019-01-26T09:34:37.769Z,-5.13
2019-01-26T09:36:45.371Z,-5.10
2019-01-26T09:38:53.142Z,-5.07
2019-01-26T09:41:00.890Z,-5.06
2019-01-26T09:43:09.662Z,-5.02
2019-01-26T09:45:17.179Z,-4.96
2019-01-26T09:47:24.692Z,-4.98
2019-01-26T09:49:32.354Z,-4.92
2019-01-26T09:51:39.901Z,-4.97
2019-01-26T09:53:47.782Z,-4.93
2019-01-26T09:55:55.575Z,-4.89
2019-01-26T09:58:03.105Z,-4.89
2019-01-26T10:00:15.412Z,-4.78
2019-01-26T10:02:22.987Z,-4.74
2019-01-26T10:04:30.582Z,-4.68
2019-01-26T10:06:38.054Z,-4.72
2019-01-26T10:08:45.483Z,-4.77
2019-01-26T10:10:53.215Z,-4.80
2019-01-26T10:13:00.704Z,-4.74
2019-01-26T10:15:10.113Z,-4.65
2019-01-26T10:17:17.648Z,-4.64
2019-01-26T10:19:25.169Z,-4.63
2019-01-26T10:21:32.876Z,-4.56
2019-01-26T10:23:39.973Z,-4.59
2019-01-26T10:25:48.696Z,-4.56
2019-01-26T10:27:56.557Z,-4.58
2019-01-26T10:30:04.112Z,-4.56
2019-01-26T10:32:12.544Z,-4.48
2019-01-26T10:34:20.329Z,-4.47
2019-01-26T10:36:41.594Z,-4.54
2019-01-26T10:39:14.322Z,-4.51
2019-01-26T10:41:46.776Z,-4.36
2019-01-26T10:43:54.559Z,-4.36
2019-01-26T10:46:02.085Z,-4.32
2019-01-26T10:48:09.772Z,-4.27
2019-01-26T10:50:16.970Z,-4.21
2019-01-26T10:52:24.109Z,-4.23
2019-01-26T10:54:31.391Z,-4.30
2019-01-26T10:56:38.570Z,-4.16
2019-01-26T10:58:45.869Z,-4.10
2019-01-26T11:00:53.037Z,-3.96
2019-01-26T11:03:00.252Z,-3.82
2019-01-26T11:05:07.710Z,-3.70
2019-01-26T11:07:15.852Z,-3.54
2019-01-26T11:09:23.089Z,-3.36
2019-01-26T11:11:30.183Z,-3.28
2019-01-26T11:13:37.893Z,-3.42
2019-01-26T11:15:44.899Z,-3.35
2019-01-26T11:17:52.044Z,-3.41
2019-01-26T11:19:59.242Z,-3.42
2019-01-26T11:22:06.446Z,-3.46
2019-01-26T11:24:13.661Z,-3.44
2019-01-26T11:26:21.259Z,-3.47
2019-01-26T11:28:29.014Z,-3.46
2019-01-26T11:30:37.632Z,-3.57
2019-01-26T11:32:45.159Z,-3.65
2019-01-26T11:34:52.836Z,-3.66
2019-01-26T11:37:00.708Z,-3.62
2019-01-26T11:39:11.838Z,-3.59
2019-01-26T11:41:19.568Z,-3.60
2019-01-26T11:43:27.243Z,-3.57
2019-01-26T11:45:45.247Z,-3.53
2019-01-26T11:47:52.684Z,-3.47
2019-01-26T11:50:01.472Z,-3.56
2019-01-26T11:52:10.263Z,-3.54
2019-01-26T11:54:19.172Z,-3.56
2019-01-26T11:56:35.235Z,-3.57
2019-01-26T11:58:42.825Z,-3.57
2019-01-26T12:01:15.077Z,-3.55
2019-01-26T12:03:56.656Z,-3.59
2019-01-26T12:06:18.403Z,-3.63
2019-01-26T12:08:25.829Z,-3.63
2019-01-26T12:10:33.676Z,-3.56
2019-01-26T12:12:41.159Z,-3.60
2019-01-26T12:14:48.743Z,-3.56
2019-01-26T12:16:56.474Z,-3.65
2019-01-26T12:19:04.185Z,-3.60
2019-01-26T12:21:11.889Z,-3.65
2019-01-26T12:23:20.730Z,-3.75
2019-01-26T12:25:28.188Z,-3.72
2019-01-26T12:27:35.770Z,-3.70
2019-01-26T12:29:43.401Z,-3.76
2019-01-26T12:31:50.804Z,-3.72
2019-01-26T12:33:58.709Z,-3.68
2019-01-26T12:36:06.674Z,-3.79
2019-01-26T12:38:14.147Z,-3.84
2019-01-26T12:40:22.185Z,-3.84
2019-01-26T12:42:29.740Z,-3.86
2019-01-26T12:44:37.967Z,-3.87
2019-01-26T12:46:45.803Z,-3.84
2019-01-26T12:48:53.564Z,-3.87
2019-01-26T12:51:00.892Z,-3.94
2019-01-26T12:53:08.420Z,-3.97
2019-01-26T12:55:16.869Z,-3.90
2019-01-26T12:57:24.498Z,-3.93
2019-01-26T12:59:32.111Z,-3.92
2019-01-26T13:01:40.085Z,-3.94
2019-01-26T13:03:47.643Z,-3.93
2019-01-26T13:05:55.276Z,-3.97
2019-01-26T13:08:03.128Z,-3.98
2019-01-26T13:10:19.749Z,-3.96
2019-01-26T13:12:27.281Z,-3.91
2019-01-26T13:14:35.055Z,-3.91
2019-01-26T13:16:42.743Z,-3.85
2019-01-26T13:18:50.179Z,-3.83
2019-01-26T13:20:58.216Z,-3.86
2019-01-26T13:23:05.795Z,-3.88
2019-01-26T13:25:15.195Z,-3.92
2019-01-26T13:27:22.696Z,-3.88
2019-01-26T13:29:30.278Z,-4.00
2019-01-26T13:31:38.145Z,-3.99
2019-01-26T13:33:45.770Z,-4.00
2019-01-26T13:35:53.464Z,-4.09
2019-01-26T13:38:01.336Z,-4.08
2019-01-26T13:40:12.294Z,-4.04
2019-01-26T13:42:19.762Z,-4.10
2019-01-26T13:44:27.115Z,-4.16
2019-01-26T13:46:34.843Z,-4.12
2019-01-26T13:48:42.159Z,-4.12
2019-01-26T13:50:49.958Z,-4.09
2019-01-26T13:52:57.616Z,-4.18
2019-01-26T13:55:05.459Z,-4.17
2019-01-26T13:57:12.894Z,-4.12
2019-01-26T13:59:21.442Z,-4.20
2019-01-26T14:01:29.106Z,-4.18
2019-01-26T14:03:36.769Z,-4.18
2019-01-26T14:05:44.414Z,-4.18
2019-01-26T14:07:52.267Z,-4.18
2019-01-26T14:09:59.907Z,-4.16
2019-01-26T14:12:07.534Z,-4.18
2019-01-26T14:14:15.017Z,-4.20
2019-01-26T14:16:22.608Z,-4.20
2019-01-26T14:18:30.437Z,-4.23
2019-01-26T14:20:38.419Z,-4.23
2019-01-26T14:22:45.902Z,-4.25
2019-01-26T14:24:53.255Z,-4.27
2019-01-26T14:27:01.049Z,-4.29
2019-01-26T14:29:08.487Z,-4.30
2019-01-26T14:31:16.603Z,-4.29
2019-01-26T14:33:24.922Z,-4.29
2019-01-26T14:35:33.135Z,-4.29
2019-01-26T14:37:40.782Z,-4.32
2019-01-26T14:39:51.962Z,-4.36
2019-01-26T14:42:00.036Z,-4.35
2019-01-26T14:44:07.676Z,-4.37
2019-01-26T14:46:15.218Z,-4.35
2019-01-26T14:48:23.030Z,-4.38
2019-01-26T14:50:31.042Z,-4.32
2019-01-26T14:52:39.089Z,-4.34
2019-01-26T14:54:46.606Z,-4.40
2019-01-26T14:56:55.265Z,-4.37
2019-01-26T14:59:02.851Z,-4.38
2019-01-26T15:01:10.640Z,-4.40
2019-01-26T15:03:18.842Z,-4.43
2019-01-26T15:05:26.614Z,-4.48
2019-01-26T15:07:34.381Z,-4.49
2019-01-26T15:09:42.271Z,-4.50
2019-01-26T15:11:49.854Z,-4.50
2019-01-26T15:13:59.336Z,-4.55
2019-01-26T15:16:07.028Z,-4.51
2019-01-26T15:18:15.025Z,-4.53
2019-01-26T15:20:26.683Z,-4.57
2019-01-26T15:22:34.994Z,-4.56
2019-01-26T15:24:42.715Z,-4.57
2019-01-26T15:26:50.621Z,-4.59
2019-01-26T15:28:59.035Z,-4.61
2019-01-26T15:31:06.549Z,-4.66
2019-01-26T15:33:15.200Z,-4.66
2019-01-26T15:35:23.255Z,-4.66
2019-01-26T15:37:31.042Z,-4.66
2019-01-26T15:39:38.868Z,-4.69
2019-01-26T15:41:47.446Z,-4.69
2019-01-26T15:43:55.091Z,-4.70
2019-01-26T15:46:03.155Z,-4.71
2019-01-26T15:48:11.058Z,-4.68
2019-01-26T15:50:18.847Z,-4.72
2019-01-26T15:52:26.436Z,-4.68
2019-01-26T15:54:36.538Z,-4.64
2019-01-26T15:56:43.903Z,-4.67
2019-01-26T15:58:52.626Z,-4.75
2019-01-26T16:01:00.611Z,-4.77
2019-01-26T16:03:10.120Z,-4.79
2019-01-26T16:05:18.075Z,-4.78
2019-01-26T16:07:27.627Z,-4.78
2019-01-26T16:09:36.424Z,-4.78
2019-01-26T16:11:44.490Z,-4.72
2019-01-26T16:13:52.980Z,-4.72
2019-01-26T16:16:01.900Z,-4.72
2019-01-26T16:18:13.520Z,-4.72
2019-01-26T16:20:21.654Z,-4.78
2019-01-26T16:22:29.275Z,-4.80
2019-01-26T16:24:36.914Z,-4.79
2019-01-26T16:26:44.780Z,-4.76
2019-01-26T16:28:52.226Z,-4.77
2019-01-26T16:31:00.277Z,-4.79
2019-01-26T16:33:08.808Z,-4.82
2019-01-26T16:35:16.820Z,-4.85
2019-01-26T16:37:24.640Z,-4.82
2019-01-26T16:39:32.739Z,-4.84
2019-01-26T16:41:40.497Z,-4.84
2019-01-26T16:43:48.355Z,-4.83
2019-01-26T16:45:55.938Z,-4.81
2019-01-26T16:48:03.720Z,-4.91
2019-01-26T16:50:16.077Z,-4.81
2019-01-26T16:52:23.926Z,-4.78
2019-01-26T16:54:31.634Z,-4.79
2019-01-26T16:56:39.257Z,-4.85
2019-01-26T16:58:47.443Z,-4.86
2019-01-26T17:00:58.706Z,-4.85
2019-01-26T17:03:06.301Z,-4.86
2019-01-26T17:05:14.015Z,-4.86
2019-01-26T17:07:21.466Z,-4.88
2019-01-26T17:09:29.557Z,-4.84
2019-01-26T17:11:37.458Z,-4.85
2019-01-26T17:13:44.938Z,-4.86
2019-01-26T17:15:52.875Z,-4.87
2019-01-26T17:18:00.982Z,-4.89
2019-01-26T17:20:17.619Z,-4.86
2019-01-26T17:22:25.920Z,-4.88
2019-01-26T17:24:34.848Z,-4.86
2019-01-26T17:26:42.658Z,-4.88
2019-01-26T17:28:51.166Z,-4.93
2019-01-26T17:30:59.451Z,-4.86
2019-01-26T17:33:07.892Z,-4.91
2019-01-26T17:35:16.642Z,-4.91
2019-01-26T17:37:25.337Z,-4.92
2019-01-26T17:39:32.813Z,-4.93
2019-01-26T17:41:40.810Z,-4.93
2019-01-26T17:43:48.562Z,-4.88
2019-01-26T17:45:56.994Z,-4.89
2019-01-26T17:48:04.708Z,-4.94
2019-01-26T17:50:16.454Z,-4.91
2019-01-26T17:52:24.269Z,-4.92
2019-01-26T17:54:32.498Z,-5.00
2019-01-26T17:56:40.561Z,-4.89
2019-01-26T17:58:48.076Z,-4.94
2019-01-26T18:01:01.197Z,-4.96
2019-01-26T18:03:09.406Z,-5.00
2019-01-26T18:05:17.483Z,-5.00
2019-01-26T18:07:25.582Z,-4.97
2019-01-26T18:09:33.675Z,-4.86
2019-01-26T18:11:41.564Z,-4.94
2019-01-26T18:13:49.485Z,-4.93
2019-01-26T18:15:57.873Z,-4.88
2019-01-26T18:18:05.723Z,-4.95
2019-01-26T18:20:18.190Z,-4.94
2019-01-26T18:22:25.891Z,-4.90
2019-01-26T18:24:34.100Z,-4.89
2019-01-26T18:26:42.362Z,-4.82
2019-01-26T18:28:50.933Z,-4.79
2019-01-26T18:30:59.257Z,-4.84
2019-01-26T18:33:07.150Z,-4.81
2019-01-26T18:35:15.214Z,-4.83
2019-01-26T18:37:25.154Z,-4.76
2019-01-26T18:39:32.593Z,-4.79
2019-01-26T18:41:40.274Z,-4.78
2019-01-26T18:43:47.767Z,-4.76
2019-01-26T18:45:55.253Z,-4.71
2019-01-26T18:48:03.421Z,-4.73
2019-01-26T18:50:15.407Z,-4.85
2019-01-26T18:52:23.240Z,-4.86
2019-01-26T18:54:31.819Z,-4.88
2019-01-26T18:56:39.705Z,-4.93
2019-01-26T18:58:47.879Z,-4.92
2019-01-26T19:00:55.362Z,-4.98
2019-01-26T19:03:54.400Z,-4.97
2019-01-26T19:06:02.519Z,-5.02
2019-01-26T19:08:10.407Z,-5.06
2019-01-26T19:10:18.481Z,-5.08
2019-01-26T19:12:26.624Z,-5.13
2019-01-26T19:14:34.628Z,-5.14
2019-01-26T19:16:42.648Z,-5.15
2019-01-26T19:18:52.109Z,-5.22
2019-01-26T19:21:03.337Z,-5.26
2019-01-26T19:23:11.037Z,-5.24
2019-01-26T19:25:19.840Z,-5.24
2019-01-26T19:27:27.649Z,-5.32
2019-01-26T19:29:36.058Z,-5.29
2019-01-26T19:31:44.236Z,-5.33
2019-01-26T19:33:52.946Z,-5.31
2019-01-26T19:36:02.934Z,-5.30
2019-01-26T19:38:10.846Z,-5.25
2019-01-26T19:40:20.908Z,-5.29
2019-01-26T19:42:29.093Z,-5.29
2019-01-26T19:44:37.942Z,-5.26
2019-01-26T19:46:46.111Z,-5.24
2019-01-26T19:48:53.795Z,-5.23
2019-01-26T19:51:01.438Z,-5.19
2019-01-26T19:53:09.073Z,-5.19
2019-01-26T19:55:17.128Z,-5.20
2019-01-26T19:57:25.005Z,-5.08
2019-01-26T19:59:32.304Z,-5.11
2019-01-26T20:01:39.664Z,-5.06
2019-01-26T20:03:47.526Z,-5.07
2019-01-26T20:05:55.361Z,-5.05
2019-01-26T20:08:03.121Z,-4.99
2019-01-26T20:10:11.174Z,-5.05
2019-01-26T20:12:18.673Z,-5.07
2019-01-26T20:14:26.654Z,-5.04
2019-01-26T20:16:36.484Z,-4.98
2019-01-26T20:18:43.504Z,-4.96
2019-01-26T20:20:50.989Z,-4.93
2019-01-26T20:22:58.490Z,-4.93
2019-01-26T20:25:06.509Z,-4.98
2019-01-26T20:27:14.148Z,-4.97
2019-01-26T20:29:21.823Z,-4.97
2019-01-26T20:31:29.274Z,-5.00
2019-01-26T20:33:36.878Z,-4.96
2019-01-26T20:35:44.662Z,-4.98
2019-01-26T20:37:51.878Z,-4.96
2019-01-26T20:39:59.213Z,-4.94
2019-01-26T20:42:06.978Z,-4.93
2019-01-26T20:44:14.700Z,-5.01
2019-01-26T20:46:22.317Z,-4.99
2019-01-26T20:48:29.803Z,-4.99
2019-01-26T20:50:37.763Z,-4.99
2019-01-26T20:52:45.095Z,-4.98
2019-01-26T20:54:53.151Z,-4.93
2019-01-26T20:57:00.833Z,-4.94
2019-01-26T20:59:08.239Z,-4.97
2019-01-26T21:01:15.994Z,-4.96
2019-01-26T21:03:23.290Z,-4.90
2019-01-26T21:05:30.578Z,-4.89
2019-01-26T21:07:38.105Z,-4.91
2019-01-26T21:09:45.609Z,-4.96
2019-01-26T21:11:53.112Z,-5.03
2019-01-26T21:14:00.627Z,-4.97
2019-01-26T21:16:08.350Z,-5.03
2019-01-26T21:18:15.775Z,-5.04
2019-01-26T21:20:24.115Z,-4.98
2019-01-26T21:22:31.567Z,-5.11
2019-01-26T21:24:39.260Z,-5.22
2019-01-26T21:26:46.824Z,-5.23
2019-01-26T21:28:54.425Z,-5.25
2019-01-26T21:31:01.802Z,-5.33
2019-01-26T21:33:09.270Z,-5.42
2019-01-26T21:35:16.819Z,-5.48
2019-01-26T21:37:24.563Z,-5.31
2019-01-26T21:39:32.483Z,-5.35
2019-01-26T21:41:40.069Z,-5.46
2019-01-26T21:43:47.707Z,-5.52
2019-01-26T21:45:55.274Z,-5.56
2019-01-26T21:48:02.711Z,-5.62
2019-01-26T21:50:16.785Z,-5.64
2019-01-26T21:52:24.580Z,-5.70
2019-01-26T21:54:32.028Z,-5.65
2019-01-26T21:56:39.534Z,-5.64
2019-01-26T21:58:47.124Z,-5.74
2019-01-26T22:00:54.661Z,-5.65
2019-01-26T22:03:02.714Z,-5.70
2019-01-26T22:05:10.992Z,-5.70
2019-01-26T22:07:18.437Z,-5.70
2019-01-26T22:09:25.987Z,-5.76
2019-01-26T22:11:33.693Z,-5.72
2019-01-26T22:13:41.219Z,-5.66
2019-01-26T22:15:48.785Z,-5.72
2019-01-26T22:17:56.442Z,-5.74
2019-01-26T22:20:04.032Z,-5.77
2019-01-26T22:22:11.475Z,-5.76
2019-01-26T22:24:19.037Z,-5.79
2019-01-26T22:26:26.456Z,-5.73
2019-01-26T22:28:33.857Z,-5.70
2019-01-26T22:30:41.482Z,-5.71
2019-01-26T22:32:48.887Z,-5.75
2019-01-26T22:34:56.328Z,-5.73
2019-01-26T22:37:04.097Z,-5.59
2019-01-26T22:39:11.700Z,-5.58
2019-01-26T22:41:19.082Z,-5.64
2019-01-26T22:43:27.015Z,-5.62
2019-01-26T22:45:34.641Z,-5.74
2019-01-26T22:47:42.161Z,-5.70
2019-01-26T22:49:49.681Z,-5.70
2019-01-26T22:51:57.138Z,-5.70
2019-01-26T22:54:04.943Z,-5.81
2019-01-26T22:56:12.696Z,-5.82
2019-01-26T22:58:20.126Z,-5.76
2019-01-26T23:00:57.934Z,-5.68
2019-01-26T23:03:05.817Z,-5.75
2019-01-26T23:06:23.838Z,-5.83
2019-01-26T23:08:32.110Z,-5.81
2019-01-26T23:11:20.867Z,-5.68
2019-01-26T23:14:31.000Z,-5.74
2019-01-26T23:17:40.223Z,-5.83
2019-01-26T23:20:12.063Z,-5.79
2019-01-26T23:23:06.510Z,-5.85
2019-01-26T23:25:51.838Z,-5.80
2019-01-26T23:28:14.634Z,-5.84
2019-01-26T23:31:12.110Z,-5.81
2019-01-26T23:33:19.675Z,-5.90
2019-01-26T23:35:27.118Z,-5.84
2019-01-26T23:37:34.710Z,-5.80
2019-01-26T23:39:41.993Z,-5.82
2019-01-26T23:41:49.344Z,-5.82
2019-01-26T23:43:56.740Z,-5.78
2019-01-26T23:46:04.170Z,-5.89
2019-01-26T23:48:11.505Z,-5.82
2019-01-26T23:50:18.906Z,-5.79
2019-01-26T23:52:26.352Z,-5.83
2019-01-26T23:54:33.867Z,-5.78
2019-01-26T23:56:41.846Z,-5.84
2019-01-26T23:58:49.360Z,-5.85
